Belgium, WI (53004)

01:57 AM CDT die 26o October, anno 2014 (GMT -0500)
Silver Beach | Change Station
CLOSE
Current Station
Personal Weather Stations
Location: Belgium, WI
Elevation: 614 ft
Nearby Weather Stations

Elev 614 ft 43.51 °N, 87.79 °W | Updated 7 minutes ago

Serena
Serena
45.5 °F
Feels Like 46 °F
N
0.0
Ventus Variabilis Ventus from Inter Aquilonem et Zephyrus

Hodie
High -- | Low -- °F
--% Chance of Precip.
Yesterday
High -- | Low -- °F
Precip. -- in
7:19 AM 5:50 PM
Waxing Crescent, 6% visible
Pressio 29.97 in
Visibilitas 10.0 milia passuum
Clouds Serena
Frigus Venti 46 °F
Frigus in quo Ros apparet 33 °F
Umor 61%
Rainfall 0.00 in
Snow Depth Not available.
UV 0 out of 12
Pollen 2.30 out of 12
Air Quality Not available.
Flu Activity Sporadic
METAR KETB 260635Z AUTO 30006KT 10SM CLR 07/M02 A2997 RMK AO2

More Conditions Fewer Conditions

Pressio 29.97 in
Visibilitas 10.0 milia passuum
Clouds Serena
Frigus Venti 46 °F
Frigus in quo Ros apparet 33 °F
Umor 61%
Rainfall 0.00 in
Snow Depth Not available.
UV 0 out of 12
Pollen 2.30 out of 12
Air Quality Not available.
Flu Activity Sporadic
METAR KETB 260635Z AUTO 30006KT 10SM CLR 07/M02 A2997 RMK AO2

More Conditions Fewer Conditions

10-Day Weather Forecast

Almanac

Astronomy

Oct. 26, 2014 Rise Set
Actual Time 7:19 AM CDT 5:50 PM CDT
Civil Twilight 6:49 AM CDT 6:20 PM CDT
Nautical Twilight 6:16 AM CDT 6:53 PM CDT
Astronomical Twilight 5:43 AM CDT 7:26 PM CDT
Moon 10:00 AM CDT 7:58 PM CDT
Length Of Visible Light 11h 30m
Length of Day
10h 31m
Tomorrow will be 2m 44s shorter.
Waxing Crescent, 6% of the Moon is Illuminated
Hodie
Waxing Crescent
Oct 30
First Quarter
Nov 6
Full
Nov 14
Last Quarter
Nov 22
New

Today's Extremes

State Highs State Lows

Community

WunderPhotos

Upload Photos

1,765,117 photos uploaded!

Nearby

Snow Depth

Station Depth Elevation
No new snow has been reported.

Earthquake Activity

City Distance Mag. Time & Date
No recent earthquake activity has been reported nearby.
Minimum magnitude displayed is 2.5.

Coastal Water Temperatures

Locus Calor
No Stations Reporting

Nearby Weather Stations